createdAt,value
2024-05-09T00:00:03.648Z,10.41
2024-05-09T00:01:02.616Z,10.40
2024-05-09T00:02:02.590Z,10.37
2024-05-09T00:03:02.590Z,10.37
2024-05-09T00:04:02.686Z,10.35
2024-05-09T00:05:02.671Z,10.34
2024-05-09T00:06:02.655Z,10.34
2024-05-09T00:07:02.497Z,10.30
2024-05-09T00:08:02.605Z,10.30
2024-05-09T00:09:02.497Z,10.26
2024-05-09T00:10:03.163Z,10.26
2024-05-09T00:11:02.536Z,10.26
2024-05-09T00:12:02.508Z,10.20
2024-05-09T00:13:02.449Z,10.19
2024-05-09T00:14:02.439Z,10.17
2024-05-09T00:15:02.406Z,10.15
2024-05-09T00:16:02.418Z,10.15
2024-05-09T00:17:02.506Z,10.13
2024-05-09T00:18:03.004Z,10.07
2024-05-09T00:19:02.459Z,10.04
2024-05-09T00:20:03.234Z,9.99
2024-05-09T00:21:02.487Z,9.97
2024-05-09T00:22:02.358Z,9.95
2024-05-09T00:23:02.369Z,9.94
2024-05-09T00:24:02.316Z,9.94
2024-05-09T00:25:02.294Z,9.92
2024-05-09T00:26:02.360Z,9.89
2024-05-09T00:27:02.269Z,9.87
2024-05-09T00:28:02.306Z,9.84
2024-05-09T00:29:02.385Z,9.87
2024-05-09T00:30:04.120Z,9.84
2024-05-09T00:31:02.232Z,9.83
2024-05-09T00:32:02.384Z,9.84
2024-05-09T00:33:02.465Z,9.83
2024-05-09T00:34:02.353Z,9.83
2024-05-09T00:35:02.268Z,9.83
2024-05-09T00:36:02.192Z,9.86
2024-05-09T00:37:02.174Z,9.86
2024-05-09T00:38:02.422Z,9.86
2024-05-09T00:39:02.174Z,9.87
2024-05-09T00:40:02.187Z,9.87
2024-05-09T00:41:02.187Z,9.87
2024-05-09T00:42:02.114Z,9.86
2024-05-09T00:43:02.110Z,9.84
2024-05-09T00:44:02.141Z,9.86
2024-05-09T00:45:02.142Z,9.87
2024-05-09T00:46:02.174Z,9.87
2024-05-09T00:47:02.149Z,9.87
2024-05-09T00:48:02.428Z,9.87
2024-05-09T00:49:02.154Z,9.87
2024-05-09T00:50:02.464Z,9.87
2024-05-09T00:51:02.096Z,9.84
2024-05-09T00:52:02.025Z,9.82
2024-05-09T00:53:02.126Z,9.80
2024-05-09T00:54:01.998Z,9.80
2024-05-09T00:55:01.981Z,9.82
2024-05-09T00:56:02.058Z,9.80
2024-05-09T00:57:02.012Z,9.82
2024-05-09T00:58:01.970Z,9.83
2024-05-09T00:59:02.030Z,9.82
2024-05-09T01:00:01.950Z,9.83
2024-05-09T01:01:02.005Z,9.83
2024-05-09T01:02:01.942Z,9.82
2024-05-09T01:03:02.340Z,9.80
2024-05-09T01:04:02.077Z,9.77
2024-05-09T01:05:02.032Z,9.76
2024-05-09T01:06:01.980Z,9.76
2024-05-09T01:07:01.862Z,9.73
2024-05-09T01:08:01.915Z,9.72
2024-05-09T01:09:01.837Z,9.69
2024-05-09T01:10:01.833Z,9.65
2024-05-09T01:11:01.988Z,9.61
2024-05-09T01:12:01.932Z,9.61
2024-05-09T01:13:01.869Z,9.58
2024-05-09T01:14:01.904Z,9.55
2024-05-09T01:15:01.836Z,9.55
2024-05-09T01:16:01.775Z,9.55
2024-05-09T01:17:01.811Z,9.51
2024-05-09T01:18:02.211Z,9.54
2024-05-09T01:19:01.836Z,9.50
2024-05-09T01:20:01.846Z,9.48
2024-05-09T01:21:01.798Z,9.47
2024-05-09T01:22:01.709Z,9.47
2024-05-09T01:23:01.730Z,9.46
2024-05-09T01:24:01.700Z,9.46
2024-05-09T01:25:01.713Z,9.46
2024-05-09T01:26:01.757Z,9.46
2024-05-09T01:27:01.648Z,9.46
2024-05-09T01:28:01.657Z,9.43
2024-05-09T01:29:01.779Z,9.43
2024-05-09T01:30:01.638Z,9.40
2024-05-09T01:31:01.611Z,9.41
2024-05-09T01:32:01.752Z,9.39
2024-05-09T01:33:02.018Z,9.37
2024-05-09T01:34:01.648Z,9.34
2024-05-09T01:35:01.639Z,9.34
2024-05-09T01:36:01.564Z,9.31
2024-05-09T01:37:01.591Z,9.31
2024-05-09T01:38:01.613Z,9.29
2024-05-09T01:39:01.549Z,9.28
2024-05-09T01:40:01.520Z,9.25
2024-05-09T01:41:01.561Z,9.23
2024-05-09T01:42:01.492Z,9.21
2024-05-09T01:43:01.526Z,9.19
2024-05-09T01:44:01.545Z,9.19
2024-05-09T01:45:01.459Z,9.19
2024-05-09T01:46:01.460Z,9.19
2024-05-09T01:47:01.528Z,9.19
2024-05-09T01:48:02.236Z,9.16
2024-05-09T01:49:01.629Z,9.18
2024-05-09T01:50:01.568Z,9.18
2024-05-09T01:51:01.538Z,9.14
2024-05-09T01:52:01.392Z,9.14
2024-05-09T01:53:01.455Z,9.14
2024-05-09T01:54:01.377Z,9.13
2024-05-09T01:55:03.420Z,9.13
2024-05-09T01:56:01.389Z,9.11
2024-05-09T01:57:01.348Z,9.10
2024-05-09T01:58:01.400Z,9.06
2024-05-09T01:59:01.356Z,9.04
2024-05-09T02:00:01.326Z,9.04
2024-05-09T02:01:01.420Z,9.02
2024-05-09T02:02:01.671Z,9.00
2024-05-09T02:03:01.750Z,9.00
2024-05-09T02:04:01.573Z,9.00
2024-05-09T02:05:01.380Z,9.00
2024-05-09T02:06:01.511Z,9.02
2024-05-09T02:07:01.265Z,9.02
2024-05-09T02:08:01.389Z,9.00
2024-05-09T02:09:01.206Z,8.99
2024-05-09T02:10:01.210Z,8.97
2024-05-09T02:11:01.361Z,8.97
2024-05-09T02:12:01.454Z,8.95
2024-05-09T02:13:01.267Z,8.95
2024-05-09T02:14:01.345Z,8.92
2024-05-09T02:15:01.177Z,8.89
2024-05-09T02:16:01.147Z,8.89
2024-05-09T02:17:01.165Z,8.87
2024-05-09T02:18:01.328Z,8.87
2024-05-09T02:19:01.304Z,8.85
2024-05-09T02:20:01.244Z,8.85
2024-05-09T02:21:01.317Z,8.82
2024-05-09T02:22:01.101Z,8.81
2024-05-09T02:23:01.087Z,8.79
2024-05-09T02:24:01.084Z,8.76
2024-05-09T02:25:01.049Z,8.71
2024-05-09T02:26:01.076Z,8.69
2024-05-09T02:27:01.025Z,8.64
2024-05-09T02:28:01.007Z,8.61
2024-05-09T02:29:01.059Z,8.58
2024-05-09T02:30:00.986Z,8.55
2024-05-09T02:31:00.994Z,8.55
2024-05-09T02:32:01.085Z,8.53
2024-05-09T02:33:01.208Z,8.52
2024-05-09T02:34:01.278Z,8.51
2024-05-09T02:35:00.996Z,8.51
2024-05-09T02:36:00.926Z,8.53
2024-05-09T02:37:00.933Z,8.53
2024-05-09T02:38:01.153Z,8.53
2024-05-09T02:39:01.046Z,8.55
2024-05-09T02:40:00.899Z,8.56
2024-05-09T02:41:00.980Z,8.56
2024-05-09T02:42:00.870Z,8.55
2024-05-09T02:43:00.893Z,8.56
2024-05-09T02:44:00.892Z,8.60
2024-05-09T02:45:00.855Z,8.58
2024-05-09T02:46:00.826Z,8.56
2024-05-09T02:47:00.839Z,8.56
2024-05-09T02:48:01.863Z,8.56
2024-05-09T02:49:00.938Z,8.55
2024-05-09T02:50:00.880Z,8.53
2024-05-09T02:51:00.872Z,8.51
2024-05-09T02:52:00.753Z,8.48
2024-05-09T02:53:00.830Z,8.46
2024-05-09T02:54:00.734Z,8.42
2024-05-09T02:55:00.751Z,8.41
2024-05-09T02:56:00.872Z,8.41
2024-05-09T02:57:00.705Z,8.38
2024-05-09T02:58:00.717Z,8.36
2024-05-09T02:59:00.782Z,8.33
2024-05-09T03:00:00.737Z,8.31
2024-05-09T03:01:00.725Z,8.30
2024-05-09T03:02:00.812Z,8.31
2024-05-09T03:03:01.039Z,8.31
2024-05-09T03:04:00.857Z,8.30
2024-05-09T03:05:00.753Z,8.28
2024-05-09T03:06:00.640Z,8.28
2024-05-09T03:07:00.605Z,8.26
2024-05-09T03:08:00.657Z,8.23
2024-05-09T03:09:00.598Z,8.24
2024-05-09T03:10:00.568Z,8.23
2024-05-09T03:11:00.651Z,8.20
2024-05-09T03:12:00.748Z,8.20
2024-05-09T03:13:00.549Z,8.19
2024-05-09T03:14:00.577Z,8.18
2024-05-09T03:15:00.540Z,8.16
2024-05-09T03:16:00.525Z,8.18
2024-05-09T03:17:00.554Z,8.19
2024-05-09T03:18:00.757Z,8.23
2024-05-09T03:19:00.558Z,8.23
2024-05-09T03:20:00.515Z,8.20
2024-05-09T03:21:00.671Z,8.24
2024-05-09T03:22:00.446Z,8.24
2024-05-09T03:23:00.697Z,8.23
2024-05-09T03:24:00.461Z,8.26
2024-05-09T03:25:00.424Z,8.27
2024-05-09T03:26:00.461Z,8.26
2024-05-09T03:27:00.410Z,8.26
2024-05-09T03:28:00.381Z,8.27
2024-05-09T03:29:00.467Z,8.28
2024-05-09T03:30:00.387Z,8.27
2024-05-09T03:31:00.380Z,8.28
2024-05-09T03:32:00.399Z,8.27
2024-05-09T03:33:00.642Z,8.26
2024-05-09T03:34:00.472Z,8.26
2024-05-09T03:35:00.355Z,8.26
2024-05-09T03:36:00.336Z,8.26
2024-05-09T03:37:00.288Z,8.26
2024-05-09T03:38:00.293Z,8.24
2024-05-09T03:39:00.282Z,8.24
2024-05-09T03:40:00.272Z,8.27
2024-05-09T03:41:00.272Z,8.27
2024-05-09T03:42:00.260Z,8.27
2024-05-09T03:43:00.236Z,8.28
2024-05-09T03:44:00.314Z,8.27
2024-05-09T03:45:00.227Z,8.28
2024-05-09T03:46:00.209Z,8.28
2024-05-09T03:47:00.244Z,8.24
2024-05-09T03:48:00.352Z,8.24
2024-05-09T03:49:00.287Z,8.24
2024-05-09T03:50:00.254Z,8.24
2024-05-09T03:51:00.206Z,8.24
2024-05-09T03:52:00.153Z,8.24
2024-05-09T03:53:00.350Z,8.24
2024-05-09T03:54:00.158Z,8.24
2024-05-09T03:55:00.141Z,8.23
2024-05-09T03:56:00.243Z,8.20
2024-05-09T03:57:00.082Z,8.18
2024-05-09T03:58:00.167Z,8.13
2024-05-09T03:59:00.142Z,8.15
2024-05-09T04:00:00.094Z,8.12
2024-05-09T04:01:00.063Z,8.12
2024-05-09T04:02:00.090Z,8.09
2024-05-09T04:03:00.298Z,8.09
2024-05-09T04:04:00.047Z,8.08
2024-05-09T04:05:00.036Z,8.03
2024-05-09T04:06:00.006Z,8.00
2024-05-09T04:06:59.978Z,7.97
2024-05-09T04:07:59.996Z,7.91
2024-05-09T04:08:59.982Z,7.88
2024-05-09T04:09:59.949Z,7.85
2024-05-09T04:10:59.985Z,7.85
2024-05-09T04:12:00.053Z,7.80
2024-05-09T04:12:59.931Z,7.80
2024-05-09T04:13:59.968Z,7.79
2024-05-09T04:14:59.907Z,7.77
2024-05-09T04:15:59.894Z,7.75
2024-05-09T04:16:59.941Z,7.76
2024-05-09T04:18:00.362Z,7.76
2024-05-09T04:18:59.945Z,7.80
2024-05-09T04:19:59.847Z,7.82
2024-05-09T04:20:59.859Z,7.87
2024-05-09T04:21:59.825Z,7.90
2024-05-09T04:22:59.877Z,7.91
2024-05-09T04:23:59.841Z,7.94
2024-05-09T04:24:59.813Z,7.97
2024-05-09T04:25:59.828Z,7.98
2024-05-09T04:26:59.807Z,8.03
2024-05-09T04:27:59.778Z,8.03
2024-05-09T04:28:59.818Z,8.08
2024-05-09T04:29:59.743Z,8.06
2024-05-09T04:30:59.726Z,8.05
2024-05-09T04:31:59.848Z,8.08
2024-05-09T04:32:59.951Z,8.08
2024-05-09T04:33:59.791Z,8.08
2024-05-09T04:34:59.709Z,8.05
2024-05-09T04:35:59.689Z,8.01
2024-05-09T04:36:59.678Z,8.03
2024-05-09T04:37:59.742Z,8.01
2024-05-09T04:38:59.647Z,8.01
2024-05-09T04:39:59.673Z,8.01
2024-05-09T04:40:59.698Z,8.00
2024-05-09T04:41:59.619Z,7.98
2024-05-09T04:42:59.642Z,7.97
2024-05-09T04:43:59.649Z,7.94
2024-05-09T04:44:59.583Z,7.95
2024-05-09T04:45:59.607Z,7.95
2024-05-09T04:46:59.587Z,7.93
2024-05-09T04:47:59.978Z,7.93
2024-05-09T04:48:59.623Z,7.94
2024-05-09T04:49:59.564Z,7.94
2024-05-09T04:50:59.573Z,7.95
2024-05-09T04:51:59.514Z,7.97
2024-05-09T04:52:59.558Z,7.97
2024-05-09T04:53:59.501Z,8.00
2024-05-09T04:54:59.487Z,7.98
2024-05-09T04:55:59.542Z,8.03
2024-05-09T04:56:59.491Z,8.03
2024-05-09T04:57:59.452Z,8.03
2024-05-09T04:58:59.493Z,8.08
2024-05-09T04:59:59.443Z,8.09
2024-05-09T05:00:59.496Z,8.13
2024-05-09T05:01:59.563Z,8.16
2024-05-09T05:02:59.880Z,8.18
2024-05-09T05:03:59.621Z,8.19
2024-05-09T05:04:59.474Z,8.20
2024-05-09T05:05:59.515Z,8.19
2024-05-09T05:07:02.545Z,8.24
2024-05-09T05:07:59.499Z,8.27
2024-05-09T05:08:59.351Z,8.28
2024-05-09T05:09:59.357Z,8.30
2024-05-09T05:10:59.375Z,8.34
2024-05-09T05:11:59.519Z,8.38
2024-05-09T05:12:59.321Z,8.41
2024-05-09T05:13:59.325Z,8.44
2024-05-09T05:14:59.278Z,8.45
2024-05-09T05:15:59.270Z,8.48
2024-05-09T05:16:59.319Z,8.51
2024-05-09T05:17:59.385Z,8.55
2024-05-09T05:18:59.398Z,8.56
2024-05-09T05:19:59.351Z,8.60
2024-05-09T05:20:59.462Z,8.61
2024-05-09T05:21:59.222Z,8.66
2024-05-09T05:22:59.276Z,8.70
2024-05-09T05:23:59.201Z,8.73
2024-05-09T05:24:59.174Z,8.76
2024-05-09T05:25:59.273Z,8.82
2024-05-09T05:26:59.145Z,8.85
2024-05-09T05:27:59.139Z,8.85
2024-05-09T05:28:59.191Z,8.87
2024-05-09T05:29:59.117Z,8.89
2024-05-09T05:30:59.133Z,8.91
2024-05-09T05:31:59.208Z,8.92
2024-05-09T05:32:59.217Z,8.94
2024-05-09T05:33:59.189Z,8.95
2024-05-09T05:34:59.082Z,8.95
2024-05-09T05:35:59.076Z,8.94
2024-05-09T05:36:59.046Z,8.94
2024-05-09T05:37:59.063Z,8.94
2024-05-09T05:38:59.045Z,8.94
2024-05-09T05:39:59.048Z,8.99
2024-05-09T05:40:59.077Z,8.99
2024-05-09T05:41:59.021Z,9.00
2024-05-09T05:42:59.022Z,9.02
2024-05-09T05:43:59.029Z,9.06
2024-05-09T05:44:59.005Z,9.06
2024-05-09T05:45:58.968Z,9.10
2024-05-09T05:46:58.940Z,9.13
2024-05-09T05:47:59.166Z,9.18
2024-05-09T05:48:59.058Z,9.21
2024-05-09T05:49:58.944Z,9.23
2024-05-09T05:51:01.163Z,9.25
2024-05-09T05:51:58.889Z,9.28
2024-05-09T05:52:58.909Z,9.29
2024-05-09T05:53:58.869Z,9.32
2024-05-09T05:54:58.894Z,9.32
2024-05-09T05:55:58.864Z,9.34
2024-05-09T05:56:58.857Z,9.37
2024-05-09T05:57:58.842Z,9.39
2024-05-09T05:58:58.906Z,9.40
2024-05-09T05:59:58.805Z,9.43
2024-05-09T06:00:58.831Z,9.44
2024-05-09T06:01:58.816Z,9.48
2024-05-09T06:02:58.838Z,9.54
2024-05-09T06:03:58.888Z,9.55
2024-05-09T06:04:58.851Z,9.58
2024-05-09T06:05:58.961Z,9.58
2024-05-09T06:06:58.733Z,9.62
2024-05-09T06:07:58.836Z,9.66
2024-05-09T06:08:58.781Z,9.69
2024-05-09T06:09:58.710Z,9.72
2024-05-09T06:10:58.807Z,9.73
2024-05-09T06:11:58.778Z,9.74
2024-05-09T06:12:58.666Z,9.76
2024-05-09T06:13:58.670Z,9.77
2024-05-09T06:14:58.658Z,9.82
2024-05-09T06:15:58.676Z,9.87
2024-05-09T06:16:58.709Z,9.91
2024-05-09T06:17:59.246Z,9.92
2024-05-09T06:18:58.698Z,9.95
2024-05-09T06:19:58.653Z,9.98
2024-05-09T06:20:58.658Z,9.99
2024-05-09T06:21:58.600Z,10.04
2024-05-09T06:22:58.587Z,10.05
2024-05-09T06:23:58.558Z,10.10
2024-05-09T06:24:58.540Z,10.12
2024-05-09T06:25:58.621Z,10.16
2024-05-09T06:26:58.538Z,10.20
2024-05-09T06:27:58.536Z,10.22
2024-05-09T06:28:58.548Z,10.26
2024-05-09T06:29:58.503Z,10.31
2024-05-09T06:30:58.484Z,10.34
2024-05-09T06:32:00.336Z,10.37
2024-05-09T06:32:58.755Z,10.38
2024-05-09T06:33:58.680Z,10.42
2024-05-09T06:34:58.474Z,10.48
2024-05-09T06:35:58.425Z,10.49
2024-05-09T06:36:58.443Z,10.54
2024-05-09T06:37:58.448Z,10.59
2024-05-09T06:38:58.396Z,10.61
2024-05-09T06:39:58.392Z,10.67
2024-05-09T06:40:58.470Z,10.69
2024-05-09T06:41:58.366Z,10.74
2024-05-09T06:42:58.373Z,10.78
2024-05-09T06:43:58.490Z,10.81
2024-05-09T06:44:58.352Z,10.84
2024-05-09T06:45:58.362Z,10.89
2024-05-09T06:46:59.911Z,10.93
2024-05-09T06:47:58.527Z,10.97
2024-05-09T06:48:58.513Z,11.00
2024-05-09T06:49:58.316Z,11.04
2024-05-09T06:50:58.324Z,11.07
2024-05-09T06:51:58.282Z,11.11
2024-05-09T06:52:58.383Z,11.15
2024-05-09T06:53:58.268Z,11.18
2024-05-09T06:54:58.245Z,11.18
2024-05-09T06:55:58.269Z,11.23
2024-05-09T06:56:58.206Z,11.26
2024-05-09T06:57:58.234Z,11.29
2024-05-09T06:58:58.273Z,11.32
2024-05-09T06:59:58.186Z,11.36
2024-05-09T07:00:58.288Z,11.37
2024-05-09T07:01:58.254Z,11.43
2024-05-09T07:03:00.122Z,11.44
2024-05-09T07:03:58.196Z,11.50
2024-05-09T07:04:58.219Z,11.52
2024-05-09T07:05:58.129Z,11.57
2024-05-09T07:06:58.119Z,11.62
2024-05-09T07:07:58.153Z,11.66
2024-05-09T07:08:58.109Z,11.69
2024-05-09T07:09:58.089Z,11.73
2024-05-09T07:10:58.191Z,11.80
2024-05-09T07:11:58.155Z,11.83
2024-05-09T07:12:58.057Z,11.86
2024-05-09T07:13:58.126Z,11.90
2024-05-09T07:14:58.032Z,11.95
2024-05-09T07:15:58.009Z,11.95
2024-05-09T07:16:58.110Z,12.02
2024-05-09T07:17:58.152Z,12.06
2024-05-09T07:18:58.122Z,12.09
2024-05-09T07:19:58.038Z,12.13
2024-05-09T07:20:58.006Z,12.18
2024-05-09T07:21:57.964Z,12.21
2024-05-09T07:22:57.997Z,12.25
2024-05-09T07:23:57.970Z,12.31
2024-05-09T07:24:57.921Z,12.35
2024-05-09T07:25:57.948Z,12.39
2024-05-09T07:26:57.923Z,12.42
2024-05-09T07:27:57.924Z,12.45
2024-05-09T07:28:57.946Z,12.49
2024-05-09T07:29:57.884Z,12.58
2024-05-09T07:30:57.890Z,12.65
2024-05-09T07:31:57.878Z,12.75
2024-05-09T07:32:58.095Z,12.82
2024-05-09T07:33:57.903Z,12.90
2024-05-09T07:34:57.847Z,12.97
2024-05-09T07:35:57.832Z,13.04
2024-05-09T07:36:57.812Z,13.12
2024-05-09T07:37:57.898Z,13.20
2024-05-09T07:38:57.778Z,13.25
2024-05-09T07:39:57.772Z,13.31
2024-05-09T07:40:57.807Z,13.39
2024-05-09T07:41:57.807Z,13.46
2024-05-09T07:42:57.734Z,13.49
2024-05-09T07:43:57.775Z,13.54
2024-05-09T07:45:14.548Z,13.59
2024-05-09T07:46:00.942Z,13.63
2024-05-09T07:49:44.330Z,13.74
2024-05-09T07:53:14.175Z,13.77
2024-05-09T07:53:46.083Z,13.89
2024-05-09T07:53:57.244Z,13.97
2024-05-09T07:54:52.988Z,14.04
2024-05-09T07:55:53.009Z,14.05
2024-05-09T07:56:53.080Z,14.12
2024-05-09T07:57:52.765Z,14.14
2024-05-09T07:58:52.917Z,14.20
2024-05-09T07:59:52.652Z,14.25
2024-05-09T08:00:52.761Z,14.29
2024-05-09T08:01:52.888Z,14.32
2024-05-09T08:02:52.747Z,14.33
2024-05-09T08:03:53.025Z,14.37
2024-05-09T08:04:52.710Z,14.41
2024-05-09T08:05:52.714Z,14.45
2024-05-09T08:06:52.669Z,14.48
2024-05-09T08:07:52.584Z,14.53
2024-05-09T08:08:52.658Z,14.58
2024-05-09T08:09:52.700Z,14.60
2024-05-09T08:10:52.703Z,14.63
2024-05-09T08:11:52.776Z,14.66
2024-05-09T08:12:52.659Z,14.70
2024-05-09T08:13:52.548Z,14.73
2024-05-09T08:14:52.564Z,14.77
2024-05-09T08:15:52.919Z,14.81
2024-05-09T08:16:52.570Z,14.82
2024-05-09T08:17:52.660Z,14.85
2024-05-09T08:18:52.585Z,14.86
2024-05-09T08:19:52.593Z,14.91
2024-05-09T08:20:52.516Z,14.96
2024-05-09T08:21:52.453Z,15.00
2024-05-09T08:22:52.462Z,15.04
2024-05-09T08:23:52.400Z,15.09
2024-05-09T08:24:52.611Z,15.15
2024-05-09T08:25:52.451Z,15.19
2024-05-09T08:26:52.382Z,15.24
2024-05-09T08:27:52.512Z,15.27
2024-05-09T08:28:52.377Z,15.29
2024-05-09T08:29:52.447Z,15.35
2024-05-09T08:30:52.468Z,15.39
2024-05-09T08:31:52.405Z,15.43
2024-05-09T08:32:52.463Z,15.46
2024-05-09T08:33:52.597Z,15.49
2024-05-09T08:34:52.466Z,15.54
2024-05-09T08:35:52.294Z,15.58
2024-05-09T08:36:52.335Z,15.59
2024-05-09T08:37:52.312Z,15.64
2024-05-09T08:38:52.270Z,15.65
2024-05-09T08:39:52.348Z,15.65
2024-05-09T08:40:52.306Z,15.62
2024-05-09T08:41:52.214Z,15.61
2024-05-09T08:42:52.577Z,15.57
2024-05-09T08:43:52.199Z,15.58
2024-05-09T08:44:52.184Z,15.58
2024-05-09T08:45:52.279Z,15.54
2024-05-09T08:46:52.183Z,15.51
2024-05-09T08:47:52.354Z,15.49
2024-05-09T08:48:52.328Z,15.46
2024-05-09T08:49:52.177Z,15.47
2024-05-09T08:50:52.262Z,15.49
2024-05-09T08:51:52.148Z,15.51
2024-05-09T08:52:52.105Z,15.51
2024-05-09T08:53:52.112Z,15.55
2024-05-09T08:54:52.125Z,15.58
2024-05-09T08:55:52.117Z,15.62
2024-05-09T08:56:52.087Z,15.70
2024-05-09T08:57:52.274Z,15.76
2024-05-09T08:58:52.073Z,15.83
2024-05-09T08:59:52.033Z,15.91
2024-05-09T09:00:52.163Z,15.97
2024-05-09T09:01:52.131Z,16.02
2024-05-09T09:02:52.041Z,16.09
2024-05-09T09:03:52.129Z,16.13
2024-05-09T09:04:52.079Z,16.20
2024-05-09T09:05:52.126Z,16.23
2024-05-09T09:06:53.246Z,16.28
2024-05-09T09:07:51.945Z,16.29
2024-05-09T09:08:51.931Z,16.33
2024-05-09T09:09:51.991Z,16.35
2024-05-09T09:10:51.954Z,16.38
2024-05-09T09:11:51.943Z,16.38
2024-05-09T09:12:52.014Z,16.39
2024-05-09T09:13:51.881Z,16.43
2024-05-09T09:14:51.874Z,16.47
2024-05-09T09:15:52.079Z,16.50
2024-05-09T09:16:51.845Z,16.54
2024-05-09T09:17:51.911Z,16.54
2024-05-09T09:18:52.076Z,16.57
2024-05-09T09:19:51.908Z,16.58
2024-05-09T09:20:51.834Z,16.61
2024-05-09T09:21:51.937Z,16.66
2024-05-09T09:22:51.783Z,16.66
2024-05-09T09:23:51.796Z,16.68
2024-05-09T09:25:51.763Z,16.74
2024-05-09T09:26:51.796Z,16.76
2024-05-09T09:27:51.799Z,16.78
2024-05-09T09:28:51.742Z,16.78
2024-05-09T09:29:51.721Z,16.79
2024-05-09T09:30:51.812Z,16.79
2024-05-09T09:31:51.714Z,16.78
2024-05-09T09:32:51.808Z,16.81
2024-05-09T09:33:51.947Z,16.86
2024-05-09T09:34:51.800Z,16.89
2024-05-09T09:35:51.661Z,16.91
2024-05-09T09:36:51.685Z,16.91
2024-05-09T09:37:51.688Z,16.93
2024-05-09T09:38:51.634Z,16.94
2024-05-09T09:39:51.647Z,16.97
2024-05-09T09:40:51.690Z,17.01
2024-05-09T09:41:51.591Z,17.04
2024-05-09T09:42:51.594Z,17.06
2024-05-09T09:43:51.609Z,17.08
2024-05-09T09:45:01.847Z,17.12
2024-05-09T09:45:52.024Z,17.15
2024-05-09T09:46:51.639Z,17.20
2024-05-09T09:47:51.750Z,17.22
2024-05-09T09:48:51.746Z,17.24
2024-05-09T09:49:51.559Z,17.23
2024-05-09T09:50:51.522Z,17.20
2024-05-09T09:51:51.667Z,17.20
2024-05-09T09:52:51.480Z,17.22
2024-05-09T09:53:51.484Z,17.20
2024-05-09T09:54:51.455Z,17.23
2024-05-09T09:55:51.461Z,17.24
2024-05-09T09:56:51.432Z,17.29
2024-05-09T09:57:51.428Z,17.29
2024-05-09T09:58:51.406Z,17.30
2024-05-09T09:59:51.426Z,17.31
2024-05-09T10:00:51.503Z,17.30
2024-05-09T10:01:51.477Z,17.29
2024-05-09T10:02:51.425Z,17.29
2024-05-09T10:03:51.594Z,17.27
2024-05-09T10:04:51.476Z,17.24
2024-05-09T10:05:51.384Z,17.20
2024-05-09T10:06:51.356Z,17.19
2024-05-09T10:07:51.344Z,17.14
2024-05-09T10:08:51.320Z,17.09
2024-05-09T10:09:51.430Z,17.11
2024-05-09T10:10:51.427Z,17.11
2024-05-09T10:11:52.442Z,17.08
2024-05-09T10:12:51.295Z,17.09
2024-05-09T10:13:51.256Z,17.09
2024-05-09T10:14:51.270Z,17.11
2024-05-09T10:15:51.521Z,17.14
2024-05-09T10:16:51.509Z,17.15
2024-05-09T10:17:51.319Z,17.22
2024-05-09T10:18:51.449Z,17.30
2024-05-09T10:19:51.290Z,17.39
2024-05-09T10:20:51.196Z,17.44
2024-05-09T10:21:51.229Z,17.49
2024-05-09T10:22:51.190Z,17.52
2024-05-09T10:23:51.149Z,17.56
2024-05-09T10:24:51.243Z,17.56
2024-05-09T10:25:51.196Z,17.56
2024-05-09T10:26:51.156Z,17.57
2024-05-09T10:27:51.155Z,17.63
2024-05-09T10:28:51.102Z,17.63
2024-05-09T10:29:51.138Z,17.59
2024-05-09T10:30:51.105Z,17.56
2024-05-09T10:31:51.196Z,17.54
2024-05-09T10:32:51.088Z,17.51
2024-05-09T10:33:52.312Z,17.49
2024-05-09T10:34:51.078Z,17.54
2024-05-09T10:35:51.031Z,17.56
2024-05-09T10:36:51.106Z,17.57
2024-05-09T10:37:51.016Z,17.59
2024-05-09T10:38:51.006Z,17.57
2024-05-09T10:39:51.064Z,17.63
2024-05-09T10:40:51.008Z,17.65
2024-05-09T10:41:50.978Z,17.70
2024-05-09T10:42:50.980Z,17.76
2024-05-09T10:43:51.005Z,17.78
2024-05-09T10:44:50.930Z,17.80
2024-05-09T10:45:51.023Z,17.82
2024-05-09T10:46:50.937Z,17.85
2024-05-09T10:47:51.061Z,17.86
2024-05-09T10:48:50.984Z,17.86
2024-05-09T10:49:51.069Z,17.85
2024-05-09T10:50:50.849Z,17.83
2024-05-09T10:51:50.990Z,17.80
2024-05-09T10:52:50.833Z,17.79
2024-05-09T10:53:50.840Z,17.74
2024-05-09T10:54:50.894Z,17.70
2024-05-09T10:55:50.812Z,17.70
2024-05-09T10:56:50.822Z,17.67
2024-05-09T10:57:50.844Z,17.64
2024-05-09T10:58:50.777Z,17.59
2024-05-09T10:59:50.775Z,17.59
2024-05-09T11:00:50.937Z,17.57
2024-05-09T11:01:51.074Z,17.54
2024-05-09T11:02:50.763Z,17.52
2024-05-09T11:03:51.089Z,17.54
2024-05-09T11:04:50.845Z,17.52
2024-05-09T11:05:50.884Z,17.54
2024-05-09T11:06:50.773Z,17.56
2024-05-09T11:07:50.681Z,17.54
2024-05-09T11:08:50.665Z,17.57
2024-05-09T11:09:50.730Z,17.59
2024-05-09T11:10:50.762Z,17.60
2024-05-09T11:11:50.668Z,17.67
2024-05-09T11:12:50.684Z,17.70
2024-05-09T11:13:50.622Z,17.74
2024-05-09T11:14:50.599Z,17.74
2024-05-09T11:15:50.636Z,17.74
2024-05-09T11:16:50.578Z,17.76
2024-05-09T11:17:50.696Z,17.80
2024-05-09T11:18:50.817Z,17.83
2024-05-09T11:19:50.600Z,17.89
2024-05-09T11:20:50.642Z,17.94
2024-05-09T11:21:50.596Z,18.03
2024-05-09T11:22:50.614Z,18.11
2024-05-09T11:23:50.512Z,18.23
2024-05-09T11:24:50.546Z,18.34
2024-05-09T11:25:50.493Z,18.44
2024-05-09T11:26:50.474Z,18.55
2024-05-09T11:27:50.567Z,18.63
2024-05-09T11:28:51.041Z,18.73
2024-05-09T11:29:50.459Z,18.81
2024-05-09T11:30:50.515Z,18.86
2024-05-09T11:31:50.554Z,18.90
2024-05-09T11:32:50.637Z,18.95
2024-05-09T11:33:50.603Z,19.00
2024-05-09T11:34:50.395Z,19.07
2024-05-09T11:35:50.399Z,19.12
2024-05-09T11:36:50.460Z,19.18
2024-05-09T11:37:50.363Z,19.21
2024-05-09T11:38:50.360Z,19.22
2024-05-09T11:39:50.399Z,19.24
2024-05-09T11:40:50.345Z,19.29
2024-05-09T11:41:50.325Z,19.30
2024-05-09T11:42:53.011Z,19.30
2024-05-09T11:43:50.303Z,19.29
2024-05-09T11:44:50.319Z,19.27
2024-05-09T11:45:50.328Z,19.27
2024-05-09T11:46:50.264Z,19.30
2024-05-09T11:47:50.368Z,19.33
2024-05-09T11:48:50.501Z,19.36
2024-05-09T11:49:50.256Z,19.40
2024-05-09T11:50:50.243Z,19.41
2024-05-09T11:51:50.233Z,19.44
2024-05-09T11:52:50.196Z,19.45
2024-05-09T11:53:50.196Z,19.48
2024-05-09T11:54:50.233Z,19.55
2024-05-09T11:55:50.205Z,19.67
2024-05-09T11:56:50.169Z,19.74
2024-05-09T11:57:50.232Z,19.81
2024-05-09T11:58:50.135Z,19.81
2024-05-09T11:59:50.147Z,19.82
2024-05-09T12:00:50.344Z,19.81
2024-05-09T12:01:50.350Z,19.77
2024-05-09T12:02:50.120Z,19.76
2024-05-09T12:03:50.342Z,19.74
2024-05-09T12:04:50.203Z,19.77
2024-05-09T12:05:50.180Z,19.81
2024-05-09T12:06:50.140Z,19.84
2024-05-09T12:07:50.045Z,19.89
2024-05-09T12:08:50.026Z,19.96
2024-05-09T12:09:50.117Z,20.03
2024-05-09T12:10:50.252Z,20.07
2024-05-09T12:11:50.056Z,20.11
2024-05-09T12:12:50.103Z,20.13
2024-05-09T12:13:50.002Z,20.14
2024-05-09T12:14:50.025Z,20.09
2024-05-09T12:15:49.995Z,20.06
2024-05-09T12:16:50.018Z,20.02
2024-05-09T12:17:50.845Z,20.00
2024-05-09T12:18:50.093Z,19.99
2024-05-09T12:19:49.924Z,19.96
2024-05-09T12:20:49.910Z,19.91
2024-05-09T12:21:49.982Z,19.88
2024-05-09T12:22:49.880Z,19.84
2024-05-09T12:23:49.912Z,19.81
2024-05-09T12:24:49.914Z,19.76
2024-05-09T12:25:49.887Z,19.71
2024-05-09T12:26:49.848Z,19.73
2024-05-09T12:27:49.868Z,19.73
2024-05-09T12:28:49.840Z,19.74
2024-05-09T12:29:49.851Z,19.76
2024-05-09T12:30:49.843Z,19.79
2024-05-09T12:31:49.898Z,19.82
2024-05-09T12:32:50.083Z,19.86
2024-05-09T12:33:49.944Z,19.92
2024-05-09T12:34:49.783Z,19.96
2024-05-09T12:35:51.108Z,20.04
2024-05-09T12:36:49.754Z,20.11
2024-05-09T12:37:49.727Z,20.13
2024-05-09T12:38:49.730Z,20.18
2024-05-09T12:39:49.752Z,20.18
2024-05-09T12:40:49.767Z,20.19
2024-05-09T12:41:49.733Z,20.22
2024-05-09T12:42:49.738Z,20.25
2024-05-09T12:43:49.684Z,20.26
2024-05-09T12:44:49.693Z,20.29
2024-05-09T12:45:49.702Z,20.32
2024-05-09T12:46:49.638Z,20.34
2024-05-09T12:47:49.791Z,20.36
2024-05-09T12:48:49.926Z,20.37
2024-05-09T12:49:49.725Z,20.34
2024-05-09T12:50:49.794Z,20.34
2024-05-09T12:51:49.790Z,20.32
2024-05-09T12:52:49.590Z,20.36
2024-05-09T12:53:49.555Z,20.39
2024-05-09T12:54:49.598Z,20.40
2024-05-09T12:55:56.650Z,20.41
2024-05-09T12:56:49.572Z,20.40
2024-05-09T12:57:49.566Z,20.40
2024-05-09T12:58:49.527Z,20.39
2024-05-09T12:59:49.511Z,20.39
2024-05-09T13:00:49.725Z,20.39
2024-05-09T13:01:49.585Z,20.37
2024-05-09T13:02:49.523Z,20.39
2024-05-09T13:03:49.844Z,20.40
2024-05-09T13:04:49.585Z,20.44
2024-05-09T13:05:49.669Z,20.55
2024-05-09T13:06:49.639Z,20.60
2024-05-09T13:07:49.448Z,20.69
2024-05-09T13:08:49.435Z,20.80